Time;durP1;ratioP1;P1;durP2;ratioP2;P2;SDS_P1;SDS_P2;PMS_P1;PMS_P2;Temp;Humidity;BMP_temperature;BMP_pressure;BME280_temperature;BME280_humidity;BME280_pressure;Samples;Min_cycle;Max_cycle;Signal;HPM_P1;HPM_P2
2023/01/27 00:00:21;;;;;;;;;;;2.90;99.90;;;;;;5005139;28;19948;-66
2023/01/27 00:02:46;;;;;;;;;;;2.90;99.90;;;;;;4995136;28;19914;-66
2023/01/27 00:05:13;;;;;;;;;;;3.00;99.90;;;;;;4993592;28;20008;-66
2023/01/27 00:07:44;;;;;;;;;;;3.00;99.90;;;;;;5008133;28;19929;-66
2023/01/27 00:10:11;;;;;;;;;;;3.00;99.90;;;;;;5007865;28;19921;-66
2023/01/27 00:15:21;;;;;;;;;;;3.00;99.90;;;;;;5008190;28;19920;-66
2023/01/27 00:17:46;;;;;;;;;;;3.00;99.90;;;;;;5008132;28;19917;-66
2023/01/27 00:20:12;;;;;;;;;;;3.00;99.90;;;;;;5006731;28;19964;-66
2023/01/27 00:25:21;;;;;;;;;;;3.00;99.90;;;;;;5007704;28;19976;-66
2023/01/27 00:27:47;;;;;;;;;;;3.00;99.90;;;;;;5008033;28;20364;-66
2023/01/27 00:30:12;;;;;;;;;;;3.00;99.90;;;;;;5007673;28;19945;-66
2023/01/27 00:35:22;;;;;;;;;;;3.00;99.90;;;;;;5007487;28;19921;-66
2023/01/27 00:37:48;;;;;;;;;;;3.00;99.90;;;;;;5007596;28;19913;-66
2023/01/27 00:40:14;;;;;;;;;;;3.00;99.90;;;;;;5007371;28;19917;-66
2023/01/27 00:42:39;;;;;;;;;;;3.00;99.90;;;;;;5001768;28;19910;-66
2023/01/27 00:47:50;;;;;;;;;;;3.00;99.90;;;;;;4997564;28;19993;-66
2023/01/27 00:50:15;;;;;;;;;;;3.00;99.90;;;;;;5005568;28;19925;-66
2023/01/27 00:52:41;;;;;;;;;;;3.00;99.90;;;;;;5005446;28;19988;-66
2023/01/27 00:55:09;;;;;;;;;;;3.00;99.90;;;;;;5007450;28;20371;-66
2023/01/27 00:57:35;;;;;;;;;;;3.00;99.90;;;;;;5007265;28;19913;-66
2023/01/27 01:00:01;;;;;;;;;;;3.00;99.90;;;;;;5007371;28;19909;-66
2023/01/27 01:02:26;;;;;;;;;;;3.00;99.90;;;;;;5006022;28;19913;-66
2023/01/27 01:04:52;;;;;;;;;;;3.00;99.90;;;;;;5007642;28;19913;-66
2023/01/27 01:07:17;;;;;;;;;;;3.00;99.90;;;;;;5007772;28;19913;-67
2023/01/27 01:09:43;;;;;;;;;;;3.00;99.90;;;;;;5007052;28;19917;-66
2023/01/27 01:12:08;;;;;;;;;;;3.00;99.90;;;;;;5006493;28;19913;-66
2023/01/27 01:14:34;;;;;;;;;;;3.00;99.90;;;;;;5007166;28;19914;-67
2023/01/27 01:16:59;;;;;;;;;;;3.00;99.90;;;;;;5007258;28;19944;-66
2023/01/27 01:19:24;;;;;;;;;;;3.00;99.90;;;;;;4994694;28;19910;-66
2023/01/27 01:21:50;;;;;;;;;;;3.00;99.90;;;;;;4987485;28;19920;-66
2023/01/27 01:24:16;;;;;;;;;;;3.00;99.90;;;;;;4996633;28;19909;-66
2023/01/27 01:26:41;;;;;;;;;;;3.00;99.90;;;;;;4989190;28;20285;-66
2023/01/27 01:29:07;;;;;;;;;;;3.00;99.90;;;;;;5007032;28;20024;-66
2023/01/27 01:31:32;;;;;;;;;;;3.00;99.90;;;;;;5006804;28;19913;-66
2023/01/27 01:33:58;;;;;;;;;;;3.00;99.90;;;;;;5011247;28;19914;-66
2023/01/27 01:36:23;;;;;;;;;;;3.00;99.90;;;;;;5010858;28;20407;-66
2023/01/27 01:38:53;;;;;;;;;;;3.00;99.90;;;;;;5011091;28;19917;-66
2023/01/27 01:41:19;;;;;;;;;;;3.00;99.90;;;;;;5010471;28;19924;-66
2023/01/27 01:43:44;;;;;;;;;;;3.00;99.90;;;;;;5010720;28;20382;-66
2023/01/27 01:46:11;;;;;;;;;;;3.00;99.90;;;;;;5010623;28;19920;-66
2023/01/27 01:48:41;;;;;;;;;;;3.10;99.90;;;;;;4992374;28;20534;-66
2023/01/27 01:51:09;;;;;;;;;;;3.10;99.90;;;;;;5010638;28;20329;-67
2023/01/27 01:53:37;;;;;;;;;;;3.10;99.90;;;;;;5010749;28;19909;-66
2023/01/27 01:56:05;;;;;;;;;;;3.00;99.90;;;;;;5010888;28;19968;-66
2023/01/27 01:58:31;;;;;;;;;;;3.00;99.90;;;;;;5010820;28;19913;-66
2023/01/27 02:00:57;;;;;;;;;;;3.10;99.90;;;;;;5010293;28;20028;-66
2023/01/27 02:03:24;;;;;;;;;;;3.00;99.90;;;;;;5010474;28;19956;-67
2023/01/27 02:05:50;;;;;;;;;;;3.00;99.90;;;;;;5004758;28;19917;-66
2023/01/27 02:08:19;;;;;;;;;;;3.00;99.90;;;;;;5010292;28;20366;-66
2023/01/27 02:10:44;;;;;;;;;;;3.00;99.90;;;;;;5010339;28;20314;-66
2023/01/27 02:13:10;;;;;;;;;;;3.00;99.90;;;;;;5010071;28;19921;-66
2023/01/27 02:15:36;;;;;;;;;;;3.00;99.90;;;;;;5010332;28;19940;-66
2023/01/27 02:18:02;;;;;;;;;;;3.00;99.90;;;;;;5009647;28;19917;-67
2023/01/27 02:20:42;;;;;;;;;;;3.00;99.90;;;;;;5009984;28;19913;-66
2023/01/27 02:23:07;;;;;;;;;;;3.00;99.90;;;;;;5010346;28;19948;-66
2023/01/27 02:25:33;;;;;;;;;;;3.00;99.90;;;;;;5010093;28;19913;-67
2023/01/27 02:27:59;;;;;;;;;;;3.10;99.90;;;;;;5010083;28;19921;-68
2023/01/27 02:30:24;;;;;;;;;;;3.00;99.90;;;;;;5009542;28;20351;-67
2023/01/27 02:32:50;;;;;;;;;;;3.00;99.90;;;;;;5003588;28;19918;-66
2023/01/27 02:35:18;;;;;;;;;;;3.00;99.90;;;;;;4995727;28;19921;-66
2023/01/27 02:37:44;;;;;;;;;;;3.00;99.90;;;;;;5010090;28;20278;-66
2023/01/27 02:40:11;;;;;;;;;;;3.00;99.90;;;;;;5009911;28;19913;-66
2023/01/27 02:42:36;;;;;;;;;;;3.00;99.90;;;;;;5005419;28;20553;-66
2023/01/27 02:45:03;;;;;;;;;;;3.00;99.90;;;;;;5008752;28;19921;-66
2023/01/27 02:47:29;;;;;;;;;;;3.00;99.90;;;;;;5000195;28;20652;-66
2023/01/27 02:49:54;;;;;;;;;;;3.00;99.90;;;;;;5009567;28;20004;-66
2023/01/27 02:52:21;;;;;;;;;;;3.00;99.90;;;;;;5003932;28;19920;-66
2023/01/27 02:54:46;;;;;;;;;;;3.00;99.90;;;;;;4998634;28;19971;-66
2023/01/27 02:57:12;;;;;;;;;;;3.00;99.90;;;;;;4981758;28;19917;-66
2023/01/27 02:59:37;;;;;;;;;;;3.00;99.90;;;;;;4989830;28;20008;-66
2023/01/27 03:02:03;;;;;;;;;;;3.00;99.90;;;;;;5004470;28;19913;-66
2023/01/27 03:04:28;;;;;;;;;;;3.00;99.90;;;;;;5009460;28;20408;-66
2023/01/27 03:06:54;;;;;;;;;;;3.00;99.90;;;;;;5009409;28;19917;-66
2023/01/27 03:09:19;;;;;;;;;;;3.00;99.90;;;;;;5009189;28;19913;-66
2023/01/27 03:19:57;;;;;;;;;;;3.00;99.90;;;;;;4989411;28;19984;-66
2023/01/27 03:22:23;;;;;;;;;;;3.00;99.90;;;;;;4989598;28;20618;-66
2023/01/27 03:24:48;;;;;;;;;;;3.00;99.90;;;;;;4995404;28;19975;-66
2023/01/27 03:27:14;;;;;;;;;;;3.00;99.90;;;;;;5007211;28;19913;-66
2023/01/27 03:29:54;;;;;;;;;;;3.00;99.90;;;;;;5009030;28;19918;-66
2023/01/27 03:32:21;;;;;;;;;;;3.00;99.90;;;;;;5009107;28;19917;-66
2023/01/27 03:34:46;;;;;;;;;;;3.00;99.90;;;;;;5008644;28;19993;-67
2023/01/27 03:48:09;;;;;;;;;;;3.00;99.90;;;;;;5006225;28;19919;-66
2023/01/27 03:50:40;;;;;;;;;;;3.00;99.90;;;;;;5007350;28;19996;-66
2023/01/27 03:53:06;;;;;;;;;;;3.00;99.90;;;;;;5008529;28;19974;-66
2023/01/27 03:55:33;;;;;;;;;;;3.00;99.90;;;;;;5008011;28;20645;-67
2023/01/27 03:58:13;;;;;;;;;;;3.00;99.90;;;;;;5008344;28;19918;-66
2023/01/27 04:00:39;;;;;;;;;;;3.00;99.90;;;;;;5006829;28;19920;-66
2023/01/27 04:08:33;;;;;;;;;;;3.00;99.90;;;;;;5008217;28;19997;-66
2023/01/27 04:13:46;;;;;;;;;;;3.00;99.90;;;;;;5007836;28;19980;-66
2023/01/27 04:16:11;;;;;;;;;;;3.00;99.90;;;;;;5008176;28;19925;-66
2023/01/27 04:18:37;;;;;;;;;;;3.00;99.90;;;;;;5007853;28;19917;-66
2023/01/27 04:21:03;;;;;;;;;;;3.00;99.90;;;;;;5007571;28;20322;-66
2023/01/27 04:23:28;;;;;;;;;;;3.00;99.90;;;;;;5008011;28;19917;-66
2023/01/27 04:25:55;;;;;;;;;;;3.00;99.90;;;;;;5007793;28;19920;-66
2023/01/27 04:28:21;;;;;;;;;;;3.00;99.90;;;;;;5007349;28;19920;-66
2023/01/27 04:30:47;;;;;;;;;;;3.00;99.90;;;;;;5007595;28;19915;-66
2023/01/27 04:33:14;;;;;;;;;;;3.00;99.90;;;;;;5007919;28;20302;-66
2023/01/27 04:35:46;;;;;;;;;;;3.00;99.90;;;;;;5007397;28;20012;-66
2023/01/27 04:38:11;;;;;;;;;;;3.00;99.90;;;;;;5007429;28;19921;-66
2023/01/27 04:40:37;;;;;;;;;;;3.00;99.90;;;;;;5007204;28;19914;-66
2023/01/27 04:43:02;;;;;;;;;;;3.00;99.90;;;;;;5006858;28;20064;-66
2023/01/27 04:45:28;;;;;;;;;;;3.00;99.90;;;;;;5007057;28;19913;-66
2023/01/27 04:47:53;;;;;;;;;;;3.00;99.90;;;;;;4997453;28;19913;-66
2023/01/27 04:50:19;;;;;;;;;;;3.00;99.90;;;;;;5006983;28;19920;-66
2023/01/27 04:52:44;;;;;;;;;;;3.00;99.90;;;;;;5006279;28;19910;-66
2023/01/27 04:55:10;;;;;;;;;;;3.00;99.90;;;;;;5006083;28;19913;-66
2023/01/27 04:57:35;;;;;;;;;;;3.00;99.90;;;;;;4989796;28;19913;-66
2023/01/27 05:00:02;;;;;;;;;;;3.00;99.90;;;;;;5007418;28;19968;-66
2023/01/27 05:02:27;;;;;;;;;;;3.00;99.90;;;;;;5007574;28;19920;-66
2023/01/27 05:04:53;;;;;;;;;;;3.00;99.90;;;;;;5007425;28;19913;-66
2023/01/27 05:07:18;;;;;;;;;;;3.00;99.90;;;;;;5006975;28;20625;-66
2023/01/27 05:09:44;;;;;;;;;;;3.00;99.90;;;;;;5006826;28;19914;-66
2023/01/27 05:12:09;;;;;;;;;;;3.00;99.90;;;;;;5007182;28;20056;-66
2023/01/27 05:14:35;;;;;;;;;;;3.00;99.90;;;;;;5007076;28;19913;-66
2023/01/27 05:17:00;;;;;;;;;;;3.00;99.90;;;;;;5007235;28;19917;-66
2023/01/27 05:19:26;;;;;;;;;;;3.00;99.90;;;;;;5006717;28;19913;-66
2023/01/27 05:21:51;;;;;;;;;;;3.00;99.90;;;;;;5007178;28;19920;-66
2023/01/27 05:24:17;;;;;;;;;;;3.00;99.90;;;;;;5007144;28;19913;-66
2023/01/27 05:26:42;;;;;;;;;;;3.00;99.90;;;;;;5006937;28;20004;-66
2023/01/27 05:29:08;;;;;;;;;;;3.00;99.90;;;;;;5006966;28;19964;-66
2023/01/27 05:31:33;;;;;;;;;;;3.00;99.90;;;;;;5006928;28;19913;-66
2023/01/27 05:34:00;;;;;;;;;;;3.00;99.90;;;;;;5006764;28;19910;-66
2023/01/27 05:36:26;;;;;;;;;;;3.00;99.90;;;;;;5007012;28;20374;-66
2023/01/27 05:38:52;;;;;;;;;;;3.10;99.90;;;;;;5006987;28;19913;-66
2023/01/27 05:41:18;;;;;;;;;;;3.10;99.90;;;;;;5006264;28;19921;-66
2023/01/27 05:43:45;;;;;;;;;;;3.10;99.90;;;;;;5006504;28;19940;-67
2023/01/27 05:46:12;;;;;;;;;;;3.10;99.90;;;;;;5006680;28;19913;-66
2023/01/27 05:48:39;;;;;;;;;;;3.00;99.90;;;;;;4998507;28;19913;-66
2023/01/27 05:51:05;;;;;;;;;;;3.10;99.90;;;;;;5006169;28;19914;-66
2023/01/27 05:53:30;;;;;;;;;;;3.10;99.90;;;;;;5007082;28;20401;-66
2023/01/27 05:55:56;;;;;;;;;;;3.00;99.90;;;;;;5003354;28;19913;-66
2023/01/27 05:58:22;;;;;;;;;;;3.10;99.90;;;;;;5006701;28;20004;-66
2023/01/27 06:00:47;;;;;;;;;;;3.10;99.90;;;;;;5006576;28;19948;-66
2023/01/27 06:03:13;;;;;;;;;;;3.10;99.90;;;;;;4989621;28;19917;-66
2023/01/27 06:05:47;;;;;;;;;;;3.10;99.90;;;;;;4995779;28;19913;-66
2023/01/27 06:08:13;;;;;;;;;;;3.10;99.90;;;;;;5006917;28;19913;-66
2023/01/27 06:10:38;;;;;;;;;;;3.10;99.90;;;;;;5006255;28;20423;-67
2023/01/27 06:13:03;;;;;;;;;;;3.10;99.90;;;;;;5006822;28;19914;-66
2023/01/27 06:15:29;;;;;;;;;;;3.10;99.90;;;;;;5006581;28;20482;-66
2023/01/27 06:17:55;;;;;;;;;;;3.10;99.90;;;;;;5007202;28;19913;-67
2023/01/27 06:20:20;;;;;;;;;;;3.10;99.90;;;;;;4990544;28;19948;-66
2023/01/27 06:22:46;;;;;;;;;;;3.10;99.90;;;;;;4990903;28;19921;-66
2023/01/27 06:25:11;;;;;;;;;;;3.10;99.90;;;;;;4999361;28;19920;-66
2023/01/27 06:27:37;;;;;;;;;;;3.10;99.90;;;;;;5010133;28;19913;-66
2023/01/27 06:30:02;;;;;;;;;;;3.10;99.90;;;;;;5010137;28;19914;-66
2023/01/27 06:32:28;;;;;;;;;;;3.10;99.90;;;;;;5010682;28;20365;-66
2023/01/27 06:34:53;;;;;;;;;;;3.10;99.90;;;;;;5010327;28;19913;-66
2023/01/27 06:37:19;;;;;;;;;;;3.10;99.90;;;;;;5010352;28;19917;-66
2023/01/27 06:39:44;;;;;;;;;;;3.10;99.90;;;;;;5009313;28;19960;-67
2023/01/27 06:42:10;;;;;;;;;;;3.10;99.90;;;;;;5009658;28;19957;-66
2023/01/27 06:44:35;;;;;;;;;;;3.10;99.90;;;;;;5009550;28;19961;-66
2023/01/27 06:47:01;;;;;;;;;;;3.10;99.90;;;;;;5002800;28;20378;-66
2023/01/27 06:49:26;;;;;;;;;;;3.10;99.90;;;;;;5007837;28;19968;-66
2023/01/27 06:51:51;;;;;;;;;;;3.10;99.90;;;;;;5009731;28;19913;-66
2023/01/27 06:54:17;;;;;;;;;;;3.10;99.90;;;;;;5009701;28;19921;-66
2023/01/27 06:56:42;;;;;;;;;;;3.10;99.90;;;;;;5009566;28;20381;-66
2023/01/27 06:59:08;;;;;;;;;;;3.10;99.90;;;;;;5009830;28;19919;-66
2023/01/27 07:01:34;;;;;;;;;;;3.10;99.90;;;;;;5009378;28;20279;-66
2023/01/27 07:04:00;;;;;;;;;;;3.10;99.90;;;;;;5009724;28;20016;-66
2023/01/27 07:06:25;;;;;;;;;;;3.10;99.90;;;;;;5009595;28;20004;-66
2023/01/27 07:08:51;;;;;;;;;;;3.10;99.90;;;;;;5009700;28;19914;-66
2023/01/27 07:11:16;;;;;;;;;;;3.10;99.90;;;;;;5009363;28;19928;-66
2023/01/27 07:13:42;;;;;;;;;;;3.10;99.90;;;;;;5009525;28;20325;-66
2023/01/27 07:16:07;;;;;;;;;;;3.10;99.90;;;;;;5009619;28;19927;-66
2023/01/27 07:18:33;;;;;;;;;;;3.10;99.90;;;;;;5009022;28;20281;-66
2023/01/27 07:20:58;;;;;;;;;;;3.10;99.90;;;;;;5009163;28;19913;-66
2023/01/27 07:23:24;;;;;;;;;;;3.10;99.90;;;;;;5009372;28;20534;-66
2023/01/27 07:25:49;;;;;;;;;;;3.10;99.90;;;;;;5009070;28;19917;-66
2023/01/27 07:28:15;;;;;;;;;;;3.10;99.90;;;;;;5008857;28;19999;-66
2023/01/27 07:30:42;;;;;;;;;;;3.10;99.90;;;;;;5008396;28;19960;-66
2023/01/27 07:33:09;;;;;;;;;;;3.10;99.90;;;;;;5008919;28;19920;-66
2023/01/27 07:35:35;;;;;;;;;;;3.20;99.90;;;;;;5008866;28;20335;-66
2023/01/27 07:38:00;;;;;;;;;;;3.20;99.90;;;;;;5008946;28;20722;-66
2023/01/27 07:40:26;;;;;;;;;;;3.20;99.90;;;;;;5008728;28;20029;-66
2023/01/27 07:42:51;;;;;;;;;;;3.10;99.90;;;;;;5003889;28;19913;-66
2023/01/27 07:45:17;;;;;;;;;;;3.20;99.90;;;;;;5008719;28;19948;-66
2023/01/27 07:47:42;;;;;;;;;;;3.20;99.90;;;;;;4999352;28;19968;-66
2023/01/27 07:50:08;;;;;;;;;;;3.20;99.90;;;;;;5008635;28;20021;-66
2023/01/27 07:52:34;;;;;;;;;;;3.20;99.90;;;;;;5008749;28;19953;-66
2023/01/27 07:54:59;;;;;;;;;;;3.20;99.90;;;;;;5008475;28;19920;-66
2023/01/27 07:57:25;;;;;;;;;;;3.20;99.90;;;;;;5005580;28;19913;-66
2023/01/27 07:59:54;;;;;;;;;;;3.20;99.90;;;;;;5008337;28;19996;-66
2023/01/27 08:02:20;;;;;;;;;;;3.20;99.90;;;;;;4998928;28;19916;-66
2023/01/27 08:04:47;;;;;;;;;;;3.20;99.90;;;;;;4989130;28;19979;-66
2023/01/27 08:07:12;;;;;;;;;;;3.20;99.90;;;;;;4989068;28;19914;-66
2023/01/27 08:09:38;;;;;;;;;;;3.20;99.90;;;;;;4990381;28;20310;-66
2023/01/27 08:12:03;;;;;;;;;;;3.20;99.90;;;;;;5008403;28;19913;-66
2023/01/27 08:14:29;;;;;;;;;;;3.20;99.90;;;;;;5008472;28;19913;-66
2023/01/27 08:16:54;;;;;;;;;;;3.20;99.90;;;;;;5008256;28;19932;-66
2023/01/27 08:19:20;;;;;;;;;;;3.20;99.90;;;;;;4996228;28;19918;-66
2023/01/27 08:21:45;;;;;;;;;;;3.20;99.90;;;;;;4988394;28;19920;-66
2023/01/27 08:24:11;;;;;;;;;;;3.30;99.90;;;;;;4989214;28;20499;-66
2023/01/27 08:26:37;;;;;;;;;;;3.30;99.90;;;;;;5008162;28;20264;-66
2023/01/27 08:29:02;;;;;;;;;;;3.30;99.90;;;;;;5008069;28;19928;-66
2023/01/27 08:31:28;;;;;;;;;;;3.30;99.90;;;;;;5007682;28;19975;-66
2023/01/27 08:33:53;;;;;;;;;;;3.30;99.90;;;;;;5007786;28;19920;-66
2023/01/27 08:36:20;;;;;;;;;;;3.30;99.90;;;;;;5007808;28;19913;-66
2023/01/27 08:38:48;;;;;;;;;;;3.30;99.90;;;;;;5007559;28;20313;-66
2023/01/27 08:41:14;;;;;;;;;;;3.30;99.90;;;;;;5006204;28;19929;-66
2023/01/27 08:43:40;;;;;;;;;;;3.30;99.90;;;;;;5006453;28;20252;-66
2023/01/27 08:46:06;;;;;;;;;;;3.30;99.90;;;;;;5007609;28;20022;-66
2023/01/27 08:48:32;;;;;;;;;;;3.30;99.90;;;;;;4997630;28;20359;-66
2023/01/27 08:50:58;;;;;;;;;;;3.30;99.90;;;;;;5006700;28;19913;-66
2023/01/27 08:53:26;;;;;;;;;;;3.40;99.90;;;;;;5002654;28;19918;-67
2023/01/27 08:55:55;;;;;;;;;;;3.40;99.90;;;;;;4999859;28;19913;-66
2023/01/27 08:58:21;;;;;;;;;;;3.40;99.90;;;;;;5006612;28;19918;-66
2023/01/27 09:00:46;;;;;;;;;;;3.30;99.90;;;;;;5006540;28;19919;-67
2023/01/27 09:03:12;;;;;;;;;;;3.40;99.90;;;;;;5006802;28;20278;-66
2023/01/27 09:05:38;;;;;;;;;;;3.40;99.90;;;;;;5005266;28;19999;-66
2023/01/27 09:08:04;;;;;;;;;;;3.40;99.90;;;;;;5006246;28;19921;-66
2023/01/27 09:10:30;;;;;;;;;;;3.40;99.90;;;;;;5006489;28;19917;-67
2023/01/27 09:12:56;;;;;;;;;;;3.40;99.90;;;;;;5007279;28;19917;-66
2023/01/27 09:15:21;;;;;;;;;;;3.40;99.90;;;;;;5007157;28;19921;-66
2023/01/27 09:17:47;;;;;;;;;;;3.40;99.90;;;;;;5007160;28;19917;-66
2023/01/27 09:20:13;;;;;;;;;;;3.40;99.90;;;;;;5007000;28;19914;-66
2023/01/27 09:22:39;;;;;;;;;;;3.40;99.90;;;;;;5007229;28;20035;-67
2023/01/27 09:25:06;;;;;;;;;;;3.40;99.90;;;;;;4989208;28;19910;-66
2023/01/27 09:27:31;;;;;;;;;;;3.40;99.90;;;;;;5007113;28;19909;-66
2023/01/27 09:29:57;;;;;;;;;;;3.50;99.90;;;;;;5006816;28;19913;-66
2023/01/27 09:32:22;;;;;;;;;;;3.50;99.90;;;;;;5007123;28;19913;-66
2023/01/27 09:34:48;;;;;;;;;;;3.40;99.90;;;;;;4991883;28;20008;-66
2023/01/27 09:37:13;;;;;;;;;;;3.50;99.90;;;;;;5007150;28;19925;-66
2023/01/27 09:39:45;;;;;;;;;;;3.50;99.90;;;;;;5007019;28;19914;-66
2023/01/27 09:42:21;;;;;;;;;;;3.50;99.90;;;;;;5001903;28;19913;-66
2023/01/27 09:44:50;;;;;;;;;;;3.50;99.90;;;;;;5006914;28;20007;-66
2023/01/27 09:47:16;;;;;;;;;;;3.50;99.90;;;;;;4998268;28;19921;-66
2023/01/27 09:50:00;;;;;;;;;;;3.50;99.90;;;;;;5005025;28;19914;-66
2023/01/27 09:52:41;;;;;;;;;;;3.50;99.90;;;;;;5006960;28;19956;-66
2023/01/27 09:55:15;;;;;;;;;;;3.50;99.90;;;;;;5010608;28;20440;-66
2023/01/27 09:57:58;;;;;;;;;;;3.50;99.90;;;;;;5010804;28;19975;-66
2023/01/27 10:00:27;;;;;;;;;;;3.60;99.90;;;;;;5010790;28;19975;-66
2023/01/27 10:02:52;;;;;;;;;;;3.50;99.90;;;;;;5010689;28;19921;-66
2023/01/27 10:05:44;;;;;;;;;;;3.60;99.90;;;;;;5010510;28;19918;-66
2023/01/27 10:08:17;;;;;;;;;;;3.50;99.90;;;;;;5010566;28;19913;-66
2023/01/27 10:10:43;;;;;;;;;;;3.60;99.90;;;;;;5010130;28;19913;-66
2023/01/27 10:13:18;;;;;;;;;;;3.50;99.90;;;;;;5010719;28;19920;-66
2023/01/27 10:16:03;;;;;;;;;;;3.60;99.90;;;;;;5010637;28;19918;-66
2023/01/27 10:18:34;;;;;;;;;;;3.60;99.90;;;;;;5004486;28;19918;-66
2023/01/27 10:21:06;;;;;;;;;;;3.60;99.90;;;;;;4989139;28;19910;-67
2023/01/27 10:23:50;;;;;;;;;;;3.60;99.90;;;;;;4990598;28;20370;-66
2023/01/27 10:26:16;;;;;;;;;;;3.60;99.90;;;;;;5007671;28;19913;-67
2023/01/27 10:28:46;;;;;;;;;;;3.60;99.90;;;;;;5008348;28;20329;-67
2023/01/27 10:31:21;;;;;;;;;;;3.60;99.90;;;;;;5010305;28;19913;-66
2023/01/27 10:33:46;;;;;;;;;;;3.60;99.90;;;;;;5010301;28;19937;-66
2023/01/27 10:36:21;;;;;;;;;;;3.60;99.90;;;;;;5010033;28;19943;-66
2023/01/27 10:39:09;;;;;;;;;;;3.60;99.90;;;;;;5010112;28;20004;-66
2023/01/27 10:41:34;;;;;;;;;;;3.60;99.90;;;;;;5005207;28;19975;-66
2023/01/27 10:44:00;;;;;;;;;;;3.70;99.90;;;;;;5009995;28;20527;-66
2023/01/27 10:46:31;;;;;;;;;;;3.70;99.90;;;;;;5007559;28;19909;-66
2023/01/27 10:49:09;;;;;;;;;;;3.70;99.90;;;;;;5003928;28;19917;-66
2023/01/27 10:51:37;;;;;;;;;;;3.70;99.90;;;;;;5009501;28;20481;-66
2023/01/27 10:54:09;;;;;;;;;;;3.70;99.90;;;;;;5009933;28;19944;-66
2023/01/27 10:56:39;;;;;;;;;;;3.70;99.90;;;;;;4990037;28;19962;-66
2023/01/27 10:59:23;;;;;;;;;;;3.70;99.90;;;;;;4990028;28;19952;-66
2023/01/27 11:01:52;;;;;;;;;;;3.70;99.90;;;;;;4995799;28;19941;-66
2023/01/27 11:04:29;;;;;;;;;;;3.70;99.90;;;;;;5008951;28;19918;-66
2023/01/27 11:06:54;;;;;;;;;;;3.80;99.90;;;;;;5009463;28;20367;-66
2023/01/27 11:09:26;;;;;;;;;;;3.70;99.90;;;;;;5006545;28;19921;-66
2023/01/27 11:11:52;;;;;;;;;;;3.70;99.90;;;;;;4994671;28;19969;-66
2023/01/27 11:14:18;;;;;;;;;;;3.80;99.90;;;;;;5009697;28;19920;-66
2023/01/27 11:16:46;;;;;;;;;;;3.80;99.90;;;;;;5004139;28;19921;-66
2023/01/27 11:19:16;;;;;;;;;;;3.80;99.90;;;;;;4995063;28;19925;-67
2023/01/27 11:21:41;;;;;;;;;;;3.80;99.90;;;;;;4989374;28;19913;-66
2023/01/27 11:24:18;;;;;;;;;;;3.80;99.90;;;;;;4990098;28;19920;-66
2023/01/27 11:26:47;;;;;;;;;;;3.80;99.90;;;;;;5009135;28;19971;-66
2023/01/27 11:29:22;;;;;;;;;;;3.80;99.90;;;;;;4991457;28;19921;-66
2023/01/27 11:31:50;;;;;;;;;;;3.80;99.90;;;;;;5009243;28;20295;-66
2023/01/27 11:34:22;;;;;;;;;;;3.80;99.90;;;;;;5009054;28;19913;-66
2023/01/27 11:36:49;;;;;;;;;;;3.80;99.90;;;;;;5008448;28;20032;-66
2023/01/27 11:39:15;;;;;;;;;;;3.80;99.90;;;;;;5008821;28;19964;-66
2023/01/27 11:41:44;;;;;;;;;;;3.80;99.90;;;;;;5008352;28;19917;-66
2023/01/27 11:44:18;;;;;;;;;;;3.80;99.90;;;;;;5008379;28;19963;-66
2023/01/27 11:46:44;;;;;;;;;;;3.80;99.90;;;;;;4994572;28;20547;-66
2023/01/27 11:49:18;;;;;;;;;;;3.80;99.90;;;;;;5008596;28;19959;-66
2023/01/27 11:51:44;;;;;;;;;;;3.90;99.90;;;;;;5008397;28;19913;-66
2023/01/27 11:54:09;;;;;;;;;;;3.90;99.90;;;;;;5008610;28;20351;-66
2023/01/27 11:56:35;;;;;;;;;;;3.80;99.90;;;;;;5007259;28;19910;-66
2023/01/27 11:59:08;;;;;;;;;;;3.80;99.90;;;;;;5008322;28;19921;-66
2023/01/27 12:01:43;;;;;;;;;;;3.90;99.90;;;;;;4990918;28;19959;-66
2023/01/27 12:04:23;;;;;;;;;;;3.90;99.90;;;;;;5008959;28;19921;-66
2023/01/27 12:06:51;;;;;;;;;;;3.90;99.90;;;;;;5008511;28;20409;-66
2023/01/27 12:09:30;;;;;;;;;;;3.90;99.90;;;;;;5008535;28;19928;-66
2023/01/27 12:12:10;;;;;;;;;;;3.90;99.90;;;;;;4988808;28;19910;-67
2023/01/27 12:14:35;;;;;;;;;;;3.90;99.90;;;;;;4988954;28;20397;-66
2023/01/27 12:17:01;;;;;;;;;;;3.90;99.90;;;;;;4996047;28;19922;-66
2023/01/27 12:19:33;;;;;;;;;;;3.90;99.90;;;;;;5007177;28;19920;-66
2023/01/27 12:22:01;;;;;;;;;;;4.00;99.90;;;;;;5007894;28;19964;-66
2023/01/27 12:24:28;;;;;;;;;;;4.00;99.90;;;;;;5008225;28;19913;-66
2023/01/27 12:26:54;;;;;;;;;;;4.00;99.90;;;;;;5008110;28;20390;-66
2023/01/27 12:29:25;;;;;;;;;;;4.10;99.90;;;;;;5007938;28;19917;-66
2023/01/27 12:31:52;;;;;;;;;;;4.10;99.90;;;;;;5008101;28;20301;-66
2023/01/27 12:34:30;;;;;;;;;;;4.00;99.90;;;;;;4990316;28;20388;-66
2023/01/27 12:36:56;;;;;;;;;;;4.10;99.90;;;;;;5007228;28;19931;-66
2023/01/27 12:39:24;;;;;;;;;;;4.10;99.90;;;;;;5007077;28;19910;-66
2023/01/27 12:41:51;;;;;;;;;;;4.10;99.90;;;;;;4991077;28;20000;-66
2023/01/27 12:44:18;;;;;;;;;;;4.10;99.90;;;;;;5006335;28;19910;-66
2023/01/27 12:47:00;;;;;;;;;;;4.20;99.90;;;;;;5002085;28;19937;-66
2023/01/27 12:49:33;;;;;;;;;;;4.20;99.90;;;;;;5005556;28;19949;-66
2023/01/27 12:52:00;;;;;;;;;;;4.20;99.90;;;;;;5007512;28;19914;-66
2023/01/27 12:54:27;;;;;;;;;;;4.20;99.90;;;;;;5007685;28;19982;-67
2023/01/27 12:56:54;;;;;;;;;;;4.20;99.90;;;;;;5007580;28;19921;-67
2023/01/27 12:59:22;;;;;;;;;;;4.20;99.90;;;;;;5007300;28;19914;-66
2023/01/27 13:01:56;;;;;;;;;;;4.20;99.90;;;;;;5007679;28;19991;-66
2023/01/27 13:04:24;;;;;;;;;;;4.30;99.90;;;;;;5007320;28;19913;-67
2023/01/27 13:06:52;;;;;;;;;;;4.30;99.90;;;;;;5006910;28;19921;-67
2023/01/27 13:09:36;;;;;;;;;;;4.30;99.90;;;;;;5006098;28;19925;-69
2023/01/27 13:12:15;;;;;;;;;;;4.30;99.90;;;;;;4986859;28;20611;-66
2023/01/27 13:14:41;;;;;;;;;;;4.30;99.90;;;;;;4987721;28;19922;-66
2023/01/27 13:17:25;;;;;;;;;;;4.30;99.90;;;;;;4995728;28;19932;-66
2023/01/27 13:19:53;;;;;;;;;;;4.30;99.90;;;;;;5002594;28;19924;-66
2023/01/27 13:22:20;;;;;;;;;;;4.30;99.90;;;;;;5007251;28;20000;-66
2023/01/27 13:24:48;;;;;;;;;;;4.40;99.90;;;;;;5007485;28;19913;-66
2023/01/27 13:27:16;;;;;;;;;;;4.40;99.90;;;;;;5006179;28;19914;-66
2023/01/27 13:29:43;;;;;;;;;;;4.40;99.90;;;;;;5007072;28;19920;-66
2023/01/27 13:32:18;;;;;;;;;;;4.40;99.90;;;;;;5007434;28;20332;-66
2023/01/27 13:34:50;;;;;;;;;;;4.40;99.90;;;;;;5007412;28;19914;-66
2023/01/27 13:37:32;;;;;;;;;;;4.40;99.90;;;;;;5007443;28;19968;-66
2023/01/27 13:40:03;;;;;;;;;;;4.40;99.90;;;;;;5006668;28;19913;-66
2023/01/27 13:42:38;;;;;;;;;;;4.40;99.90;;;;;;5006771;28;19914;-66
2023/01/27 13:45:09;;;;;;;;;;;4.40;99.90;;;;;;5006770;28;19936;-66
2023/01/27 13:47:42;;;;;;;;;;;4.40;99.90;;;;;;4997997;28;19914;-66
2023/01/27 13:50:16;;;;;;;;;;;4.40;99.90;;;;;;5006335;28;19914;-66
2023/01/27 13:52:42;;;;;;;;;;;4.40;99.90;;;;;;5007454;28;20264;-66
2023/01/27 13:55:11;;;;;;;;;;;4.40;99.90;;;;;;5007051;28;19913;-67
2023/01/27 13:57:51;;;;;;;;;;;4.40;99.90;;;;;;5005177;28;19925;-66
2023/01/27 14:00:22;;;;;;;;;;;4.30;99.90;;;;;;5021521;28;20617;-66
2023/01/27 14:02:51;;;;;;;;;;;4.30;99.90;;;;;;5005228;28;19967;-67
2023/01/27 14:05:22;;;;;;;;;;;4.40;99.90;;;;;;5005370;28;19914;-66
2023/01/27 14:07:55;;;;;;;;;;;4.40;99.90;;;;;;5006909;28;19913;-66
2023/01/27 14:10:20;;;;;;;;;;;4.30;99.90;;;;;;4988867;28;19914;-66
2023/01/27 14:12:45;;;;;;;;;;;4.40;99.90;;;;;;5007052;28;20109;-66
2023/01/27 14:15:30;;;;;;;;;;;4.30;99.90;;;;;;5006068;28;19916;-66
2023/01/27 14:18:14;;;;;;;;;;;4.30;99.90;;;;;;5003611;28;19921;-66
2023/01/27 14:20:58;;;;;;;;;;;4.30;99.90;;;;;;4984663;28;19918;-66
2023/01/27 14:23:43;;;;;;;;;;;4.30;99.90;;;;;;4985913;28;19914;-66
2023/01/27 14:26:19;;;;;;;;;;;4.30;99.90;;;;;;5002618;28;19949;-66
2023/01/27 14:28:57;;;;;;;;;;;4.30;99.90;;;;;;5005723;28;19917;-66
2023/01/27 14:31:28;;;;;;;;;;;4.30;99.90;;;;;;5006361;28;19921;-66
2023/01/27 14:34:02;;;;;;;;;;;4.30;99.90;;;;;;5006771;28;19949;-66
2023/01/27 14:36:27;;;;;;;;;;;4.30;99.90;;;;;;5006762;28;19913;-66
2023/01/27 14:39:01;;;;;;;;;;;4.30;99.90;;;;;;5006546;28;19938;-67
2023/01/27 14:41:43;;;;;;;;;;;4.30;99.90;;;;;;5004316;28;19922;-66
2023/01/27 14:44:29;;;;;;;;;;;4.30;99.90;;;;;;5010062;28;19963;-66
2023/01/27 14:46:56;;;;;;;;;;;4.30;99.90;;;;;;5002219;28;19953;-66
2023/01/27 14:49:41;;;;;;;;;;;4.30;99.90;;;;;;5006861;28;19916;-66
2023/01/27 14:52:21;;;;;;;;;;;4.30;99.90;;;;;;5009221;28;19913;-66
2023/01/27 14:54:52;;;;;;;;;;;4.30;99.90;;;;;;5009783;28;20657;-66
2023/01/27 14:57:33;;;;;;;;;;;4.30;99.90;;;;;;5009823;28;19917;-66
2023/01/27 15:00:07;;;;;;;;;;;4.30;99.90;;;;;;5009769;28;20520;-66
2023/01/27 15:02:47;;;;;;;;;;;4.30;99.90;;;;;;5009579;28;19913;-66
2023/01/27 15:05:27;;;;;;;;;;;4.30;99.90;;;;;;5009632;28;20654;-66
2023/01/27 15:07:52;;;;;;;;;;;4.30;99.90;;;;;;5009636;28;20011;-66
2023/01/27 15:10:22;;;;;;;;;;;4.30;99.90;;;;;;5009177;28;20484;-66
2023/01/27 15:12:50;;;;;;;;;;;4.30;99.90;;;;;;5009324;28;19925;-66
2023/01/27 15:15:19;;;;;;;;;;;4.30;99.90;;;;;;5008914;28;19945;-66